sensor_id;sensor_type;location;lat;lon;timestamp;pressure;altitude;pressure_sealevel;temperature;humidity
13434;BME280;6789;47.678;9.158;2022-11-23T00:01:21;95587.78;;;6.36;92.78
13434;BME280;6789;47.678;9.158;2022-11-23T00:06:13;95582.56;;;6.36;94.23
13434;BME280;6789;47.678;9.158;2022-11-23T00:11:05;95584.16;;;6.37;94.15
13434;BME280;6789;47.678;9.158;2022-11-23T00:15:57;95582.13;;;6.39;93.66
13434;BME280;6789;47.678;9.158;2022-11-23T00:20:49;95575.91;;;6.40;94.00
13434;BME280;6789;47.678;9.158;2022-11-23T00:25:44;95588.34;;;6.49;93.17
13434;BME280;6789;47.678;9.158;2022-11-23T00:30:36;95587.00;;;6.47;93.15
13434;BME280;6789;47.678;9.158;2022-11-23T00:35:28;95577.59;;;6.69;91.90
13434;BME280;6789;47.678;9.158;2022-11-23T00:40:19;95579.63;;;6.67;91.66
13434;BME280;6789;47.678;9.158;2022-11-23T00:45:11;95577.59;;;6.69;91.96
13434;BME280;6789;47.678;9.158;2022-11-23T00:50:03;95573.97;;;6.70;92.19
13434;BME280;6789;47.678;9.158;2022-11-23T00:54:55;95568.38;;;6.89;90.85
13434;BME280;6789;47.678;9.158;2022-11-23T00:59:47;95572.06;;;7.05;90.08
13434;BME280;6789;47.678;9.158;2022-11-23T01:04:39;95559.16;;;7.09;89.77
13434;BME280;6789;47.678;9.158;2022-11-23T01:09:30;95566.88;;;7.05;88.71
13434;BME280;6789;47.678;9.158;2022-11-23T01:14:23;95568.25;;;6.96;89.66
13434;BME280;6789;47.678;9.158;2022-11-23T01:19:18;95570.19;;;6.89;90.52
13434;BME280;6789;47.678;9.158;2022-11-23T01:24:18;95565.66;;;6.84;89.96
13434;BME280;6789;47.678;9.158;2022-11-23T01:29:11;95572.13;;;6.82;90.40
13434;BME280;6789;47.678;9.158;2022-11-23T01:34:03;95581.25;;;7.07;88.84
13434;BME280;6789;47.678;9.158;2022-11-23T01:38:56;95577.44;;;6.87;89.66
13434;BME280;6789;47.678;9.158;2022-11-23T01:43:51;95574.72;;;6.82;89.54
13434;BME280;6789;47.678;9.158;2022-11-23T01:48:56;95575.41;;;6.77;89.15
13434;BME280;6789;47.678;9.158;2022-11-23T01:53:53;95577.53;;;6.92;88.59
13434;BME280;6789;47.678;9.158;2022-11-23T01:58:51;95579.81;;;7.00;88.02
13434;BME280;6789;47.678;9.158;2022-11-23T02:03:47;95579.94;;;6.82;89.21
13434;BME280;6789;47.678;9.158;2022-11-23T02:08:40;95584.38;;;6.70;89.62
13434;BME280;6789;47.678;9.158;2022-11-23T02:13:32;95580.53;;;6.61;91.05
13434;BME280;6789;47.678;9.158;2022-11-23T02:18:28;95584.03;;;6.55;91.45
13434;BME280;6789;47.678;9.158;2022-11-23T02:28:49;95599.22;;;6.46;91.42
13434;BME280;6789;47.678;9.158;2022-11-23T02:33:43;95595.72;;;6.41;92.09
13434;BME280;6789;47.678;9.158;2022-11-23T02:38:34;95600.25;;;6.34;92.27
13434;BME280;6789;47.678;9.158;2022-11-23T02:43:26;95594.34;;;6.27;92.50
13434;BME280;6789;47.678;9.158;2022-11-23T02:48:18;95587.56;;;6.26;92.77
13434;BME280;6789;47.678;9.158;2022-11-23T02:53:11;95584.63;;;6.34;91.56
13434;BME280;6789;47.678;9.158;2022-11-23T02:58:05;95585.28;;;6.18;91.72
13434;BME280;6789;47.678;9.158;2022-11-23T03:03:00;95577.25;;;6.08;92.71
13434;BME280;6789;47.678;9.158;2022-11-23T03:07:52;95586.94;;;6.01;92.72
13434;BME280;6789;47.678;9.158;2022-11-23T03:12:44;95589.88;;;5.82;93.42
13434;BME280;6789;47.678;9.158;2022-11-23T03:17:35;95591.88;;;5.80;94.29
13434;BME280;6789;47.678;9.158;2022-11-23T03:22:27;95588.03;;;5.82;95.13
13434;BME280;6789;47.678;9.158;2022-11-23T03:27:19;95581.03;;;5.83;94.82
13434;BME280;6789;47.678;9.158;2022-11-23T03:32:11;95582.06;;;5.82;94.40
13434;BME280;6789;47.678;9.158;2022-11-23T03:37:02;95584.88;;;5.80;94.56
13434;BME280;6789;47.678;9.158;2022-11-23T03:41:54;95580.34;;;5.76;94.25
13434;BME280;6789;47.678;9.158;2022-11-23T03:46:46;95580.16;;;5.60;94.43
13434;BME280;6789;47.678;9.158;2022-11-23T03:51:38;95567.75;;;5.44;94.89
13434;BME280;6789;47.678;9.158;2022-11-23T03:56:30;95566.81;;;5.27;95.17
13434;BME280;6789;47.678;9.158;2022-11-23T04:01:21;95568.44;;;5.10;95.32
13434;BME280;6789;47.678;9.158;2022-11-23T04:06:13;95564.97;;;4.98;96.52
13434;BME280;6789;47.678;9.158;2022-11-23T04:11:05;95563.03;;;4.93;97.64
13434;BME280;6789;47.678;9.158;2022-11-23T04:15:57;95560.50;;;4.87;98.20
13434;BME280;6789;47.678;9.158;2022-11-23T04:20:49;95561.94;;;4.83;98.66
13434;BME280;6789;47.678;9.158;2022-11-23T04:25:41;95559.44;;;4.77;98.33
13434;BME280;6789;47.678;9.158;2022-11-23T04:30:34;95561.31;;;4.70;98.92
13434;BME280;6789;47.678;9.158;2022-11-23T04:35:25;95570.69;;;4.71;99.47
13434;BME280;6789;47.678;9.158;2022-11-23T04:40:17;95569.53;;;4.67;99.98
13434;BME280;6789;47.678;9.158;2022-11-23T04:45:09;95561.50;;;4.68;100.00
13434;BME280;6789;47.678;9.158;2022-11-23T04:50:02;95553.94;;;4.67;100.00
13434;BME280;6789;47.678;9.158;2022-11-23T04:54:54;95545.72;;;4.70;100.00
13434;BME280;6789;47.678;9.158;2022-11-23T04:59:45;95558.63;;;4.76;100.00
13434;BME280;6789;47.678;9.158;2022-11-23T05:04:37;95549.59;;;4.79;100.00
13434;BME280;6789;47.678;9.158;2022-11-23T05:09:31;95538.00;;;4.81;100.00
13434;BME280;6789;47.678;9.158;2022-11-23T05:14:37;95530.78;;;4.83;100.00
13434;BME280;6789;47.678;9.158;2022-11-23T05:19:29;95531.44;;;4.79;100.00
13434;BME280;6789;47.678;9.158;2022-11-23T05:24:21;95538.72;;;4.70;100.00
13434;BME280;6789;47.678;9.158;2022-11-23T05:29:27;95525.34;;;4.55;100.00
13434;BME280;6789;47.678;9.158;2022-11-23T05:34:20;95528.25;;;4.41;100.00
13434;BME280;6789;47.678;9.158;2022-11-23T05:39:16;95523.00;;;4.29;100.00
13434;BME280;6789;47.678;9.158;2022-11-23T05:44:08;95536.66;;;4.19;100.00
13434;BME280;6789;47.678;9.158;2022-11-23T05:49:00;95530.81;;;4.05;100.00
13434;BME280;6789;47.678;9.158;2022-11-23T05:53:56;95528.94;;;3.94;100.00
13434;BME280;6789;47.678;9.158;2022-11-23T05:58:54;95532.41;;;3.82;100.00
13434;BME280;6789;47.678;9.158;2022-11-23T06:04:01;95534.53;;;3.67;100.00
13434;BME280;6789;47.678;9.158;2022-11-23T06:09:00;95544.41;;;3.52;100.00
13434;BME280;6789;47.678;9.158;2022-11-23T06:13:53;95550.84;;;3.43;100.00
13434;BME280;6789;47.678;9.158;2022-11-23T06:18:49;95545.91;;;3.35;100.00
13434;BME280;6789;47.678;9.158;2022-11-23T06:23:43;95545.16;;;3.28;100.00
13434;BME280;6789;47.678;9.158;2022-11-23T06:28:36;95547.44;;;3.18;100.00
13434;BME280;6789;47.678;9.158;2022-11-23T06:33:29;95549.47;;;3.10;100.00
13434;BME280;6789;47.678;9.158;2022-11-23T06:38:21;95545.84;;;3.17;100.00
13434;BME280;6789;47.678;9.158;2022-11-23T06:43:27;95549.47;;;3.10;100.00
13434;BME280;6789;47.678;9.158;2022-11-23T06:48:34;95561.38;;;3.11;100.00
13434;BME280;6789;47.678;9.158;2022-11-23T06:53:40;95557.84;;;3.05;100.00
13434;BME280;6789;47.678;9.158;2022-11-23T06:58:49;95553.06;;;3.02;100.00
13434;BME280;6789;47.678;9.158;2022-11-23T07:03:51;95565.41;;;3.07;100.00
13434;BME280;6789;47.678;9.158;2022-11-23T07:08:44;95572.38;;;3.06;100.00
13434;BME280;6789;47.678;9.158;2022-11-23T07:13:43;95572.94;;;3.15;100.00
13434;BME280;6789;47.678;9.158;2022-11-23T07:18:36;95582.41;;;3.27;100.00
13434;BME280;6789;47.678;9.158;2022-11-23T07:23:30;95582.34;;;3.40;100.00
13434;BME280;6789;47.678;9.158;2022-11-23T07:28:23;95594.69;;;3.45;100.00
13434;BME280;6789;47.678;9.158;2022-11-23T07:33:19;95592.56;;;3.66;100.00
13434;BME280;6789;47.678;9.158;2022-11-23T07:38:13;95593.69;;;3.76;100.00
13434;BME280;6789;47.678;9.158;2022-11-23T07:43:06;95604.00;;;3.83;100.00
13434;BME280;6789;47.678;9.158;2022-11-23T07:47:59;95597.56;;;3.92;100.00
13434;BME280;6789;47.678;9.158;2022-11-23T07:53:06;95600.59;;;4.13;100.00
13434;BME280;6789;47.678;9.158;2022-11-23T07:58:12;95604.75;;;4.38;100.00
13434;BME280;6789;47.678;9.158;2022-11-23T08:03:04;95620.50;;;4.61;100.00
13434;BME280;6789;47.678;9.158;2022-11-23T08:08:17;95604.34;;;4.77;100.00
13434;BME280;6789;47.678;9.158;2022-11-23T08:13:23;95597.50;;;5.00;100.00
13434;BME280;6789;47.678;9.158;2022-11-23T08:18:15;95597.13;;;5.15;100.00
13434;BME280;6789;47.678;9.158;2022-11-23T08:23:20;95594.50;;;5.33;100.00
13434;BME280;6789;47.678;9.158;2022-11-23T08:28:26;95594.50;;;5.33;100.00
13434;BME280;6789;47.678;9.158;2022-11-23T08:33:22;95591.03;;;5.39;100.00
13434;BME280;6789;47.678;9.158;2022-11-23T08:38:18;95584.06;;;5.51;100.00
13434;BME280;6789;47.678;9.158;2022-11-23T08:43:23;95585.47;;;5.64;100.00
13434;BME280;6789;47.678;9.158;2022-11-23T08:48:25;95584.72;;;5.75;100.00
13434;BME280;6789;47.678;9.158;2022-11-23T08:53:33;95579.81;;;5.85;100.00
13434;BME280;6789;47.678;9.158;2022-11-23T08:58:38;95566.03;;;5.96;100.00
13434;BME280;6789;47.678;9.158;2022-11-23T09:03:40;95569.13;;;6.16;100.00
13434;BME280;6789;47.678;9.158;2022-11-23T09:08:46;95567.41;;;6.33;100.00
13434;BME280;6789;47.678;9.158;2022-11-23T09:13:45;95560.63;;;6.43;100.00
13434;BME280;6789;47.678;9.158;2022-11-23T09:18:38;95564.69;;;6.51;100.00
13434;BME280;6789;47.678;9.158;2022-11-23T09:23:33;95561.97;;;6.69;100.00
13434;BME280;6789;47.678;9.158;2022-11-23T09:28:32;95560.13;;;6.81;100.00
13434;BME280;6789;47.678;9.158;2022-11-23T09:33:38;95562.03;;;6.97;100.00
13434;BME280;6789;47.678;9.158;2022-11-23T09:38:31;95563.47;;;7.15;98.38
13434;BME280;6789;47.678;9.158;2022-11-23T09:44:01;95566.81;;;7.27;98.94
13434;BME280;6789;47.678;9.158;2022-11-23T09:49:15;95566.53;;;7.40;97.33
13434;BME280;6789;47.678;9.158;2022-11-23T09:54:29;95560.00;;;7.54;96.83
13434;BME280;6789;47.678;9.158;2022-11-23T09:59:48;95557.91;;;7.68;94.62
13434;BME280;6789;47.678;9.158;2022-11-23T10:05:02;95556.56;;;7.81;93.63
13434;BME280;6789;47.678;9.158;2022-11-23T10:26:57;95548.66;;;8.21;89.48
13434;BME280;6789;47.678;9.158;2022-11-23T10:32:31;95551.31;;;8.42;88.59
13434;BME280;6789;47.678;9.158;2022-11-23T10:37:42;95554.94;;;8.57;87.15
13434;BME280;6789;47.678;9.158;2022-11-23T10:43:24;95554.31;;;8.51;87.21
13434;BME280;6789;47.678;9.158;2022-11-23T10:48:35;95548.69;;;8.58;86.35
13434;BME280;6789;47.678;9.158;2022-11-23T10:53:43;95546.97;;;8.69;84.68
13434;BME280;6789;47.678;9.158;2022-11-23T10:58:49;95543.84;;;8.67;84.36
13434;BME280;6789;47.678;9.158;2022-11-23T11:03:42;95540.22;;;8.89;83.63
13434;BME280;6789;47.678;9.158;2022-11-23T11:08:56;95537.47;;;9.22;82.22
13434;BME280;6789;47.678;9.158;2022-11-23T11:14:34;95539.56;;;9.46;80.62
13434;BME280;6789;47.678;9.158;2022-11-23T11:19:59;95533.44;;;9.36;78.30
13434;BME280;6789;47.678;9.158;2022-11-23T11:25:35;95529.16;;;9.51;78.68
13434;BME280;6789;47.678;9.158;2022-11-23T11:37:38;95516.59;;;9.48;75.43
13434;BME280;6789;47.678;9.158;2022-11-23T11:48:29;95503.75;;;9.52;75.53
13434;BME280;6789;47.678;9.158;2022-11-23T11:54:17;95502.34;;;9.66;75.33
13434;BME280;6789;47.678;9.158;2022-11-23T11:59:46;95499.88;;;9.54;75.71
13434;BME280;6789;47.678;9.158;2022-11-23T12:05:24;95503.38;;;9.65;75.58
13434;BME280;6789;47.678;9.158;2022-11-23T12:10:42;95498.19;;;9.70;73.67
13434;BME280;6789;47.678;9.158;2022-11-23T12:43:25;95463.41;;;9.43;75.34
13434;BME280;6789;47.678;9.158;2022-11-23T12:54:37;95449.81;;;9.46;73.43
13434;BME280;6789;47.678;9.158;2022-11-23T12:59:56;95462.25;;;9.34;72.95
13434;BME280;6789;47.678;9.158;2022-11-23T13:05:43;95452.59;;;9.66;71.81
13434;BME280;6789;47.678;9.158;2022-11-23T13:11:20;95464.78;;;9.50;70.52
13434;BME280;6789;47.678;9.158;2022-11-23T13:22:22;95445.00;;;9.33;71.17
13434;BME280;6789;47.678;9.158;2022-11-23T13:27:57;95449.28;;;9.44;70.92
13434;BME280;6789;47.678;9.158;2022-11-23T13:38:34;95446.31;;;9.62;70.53
13434;BME280;6789;47.678;9.158;2022-11-23T13:43:35;95444.56;;;9.72;70.14
13434;BME280;6789;47.678;9.158;2022-11-23T13:48:49;95437.88;;;9.55;71.09
13434;BME280;6789;47.678;9.158;2022-11-23T13:54:21;95434.69;;;9.53;70.13
13434;BME280;6789;47.678;9.158;2022-11-23T14:04:37;95428.78;;;9.36;71.65
13434;BME280;6789;47.678;9.158;2022-11-23T14:10:05;95427.19;;;9.30;76.11
13434;BME280;6789;47.678;9.158;2022-11-23T14:15:26;95422.94;;;9.24;75.82
13434;BME280;6789;47.678;9.158;2022-11-23T14:21:22;95428.22;;;9.29;75.72
13434;BME280;6789;47.678;9.158;2022-11-23T14:27:24;95437.78;;;9.19;77.77
13434;BME280;6789;47.678;9.158;2022-11-23T14:39:08;95413.59;;;8.80;79.67
13434;BME280;6789;47.678;9.158;2022-11-23T14:44:26;95402.91;;;8.60;80.15
13434;BME280;6789;47.678;9.158;2022-11-23T14:49:52;95409.31;;;8.48;81.25
13434;BME280;6789;47.678;9.158;2022-11-23T14:55:04;95408.38;;;8.38;82.60
13434;BME280;6789;47.678;9.158;2022-11-23T15:00:32;95401.28;;;8.33;82.90
13434;BME280;6789;47.678;9.158;2022-11-23T15:05:45;95395.22;;;8.28;83.64
13434;BME280;6789;47.678;9.158;2022-11-23T15:11:13;95391.31;;;8.30;84.09
13434;BME280;6789;47.678;9.158;2022-11-23T15:16:38;95392.59;;;8.28;84.15
13434;BME280;6789;47.678;9.158;2022-11-23T15:21:45;95388.41;;;8.27;85.06
13434;BME280;6789;47.678;9.158;2022-11-23T15:26:51;95388.56;;;8.20;84.57
13434;BME280;6789;47.678;9.158;2022-11-23T15:31:58;95390.88;;;8.17;84.78
13434;BME280;6789;47.678;9.158;2022-11-23T15:37:03;95385.31;;;8.13;85.27
13434;BME280;6789;47.678;9.158;2022-11-23T15:42:18;95395.44;;;8.10;84.51
13434;BME280;6789;47.678;9.158;2022-11-23T15:47:27;95387.56;;;8.05;85.73
13434;BME280;6789;47.678;9.158;2022-11-23T15:52:37;95405.28;;;8.03;85.96
13434;BME280;6789;47.678;9.158;2022-11-23T15:57:43;95401.09;;;8.02;87.51
13434;BME280;6789;47.678;9.158;2022-11-23T16:02:50;95404.66;;;7.96;90.42
13434;BME280;6789;47.678;9.158;2022-11-23T16:08:00;95408.25;;;7.90;90.34
13434;BME280;6789;47.678;9.158;2022-11-23T16:13:37;95415.97;;;7.85;90.82
13434;BME280;6789;47.678;9.158;2022-11-23T16:18:49;95408.16;;;7.85;91.60
13434;BME280;6789;47.678;9.158;2022-11-23T16:24:14;95423.97;;;7.95;90.93
13434;BME280;6789;47.678;9.158;2022-11-23T16:29:28;95439.13;;;7.98;90.39
13434;BME280;6789;47.678;9.158;2022-11-23T16:34:35;95440.09;;;7.92;91.33
13434;BME280;6789;47.678;9.158;2022-11-23T16:39:41;95467.38;;;8.01;90.58
13434;BME280;6789;47.678;9.158;2022-11-23T16:44:47;95483.81;;;8.01;90.18
13434;BME280;6789;47.678;9.158;2022-11-23T16:49:59;95505.28;;;8.20;89.67
13434;BME280;6789;47.678;9.158;2022-11-23T16:55:10;95517.44;;;7.98;92.35
13434;BME280;6789;47.678;9.158;2022-11-23T17:00:26;95527.34;;;7.96;85.70
13434;BME280;6789;47.678;9.158;2022-11-23T17:05:32;95544.69;;;8.18;79.51
13434;BME280;6789;47.678;9.158;2022-11-23T17:10:39;95563.66;;;8.14;84.10
13434;BME280;6789;47.678;9.158;2022-11-23T17:15:46;95611.66;;;8.13;84.39
13434;BME280;6789;47.678;9.158;2022-11-23T17:20:52;95628.66;;;7.99;85.38
13434;BME280;6789;47.678;9.158;2022-11-23T17:26:02;95633.09;;;7.71;86.28
13434;BME280;6789;47.678;9.158;2022-11-23T17:31:13;95653.69;;;7.56;86.18
13434;BME280;6789;47.678;9.158;2022-11-23T17:36:19;95671.09;;;7.27;89.36
13434;BME280;6789;47.678;9.158;2022-11-23T17:41:25;95679.59;;;7.11;90.54
13434;BME280;6789;47.678;9.158;2022-11-23T17:46:31;95686.19;;;7.03;91.80
13434;BME280;6789;47.678;9.158;2022-11-23T17:51:38;95695.63;;;7.04;91.24
13434;BME280;6789;47.678;9.158;2022-11-23T17:56:44;95708.41;;;7.05;91.95
13434;BME280;6789;47.678;9.158;2022-11-23T18:01:36;95720.97;;;7.08;91.92
13434;BME280;6789;47.678;9.158;2022-11-23T18:06:41;95732.56;;;7.12;90.64
13434;BME280;6789;47.678;9.158;2022-11-23T18:11:47;95748.19;;;7.01;92.39
13434;BME280;6789;47.678;9.158;2022-11-23T18:16:54;95769.03;;;7.01;93.23
13434;BME280;6789;47.678;9.158;2022-11-23T18:22:01;95759.84;;;6.98;93.69
13434;BME280;6789;47.678;9.158;2022-11-23T18:27:07;95773.31;;;6.95;93.88
13434;BME280;6789;47.678;9.158;2022-11-23T18:32:12;95783.97;;;6.94;93.95
13434;BME280;6789;47.678;9.158;2022-11-23T18:37:22;95788.50;;;6.98;95.84
13434;BME280;6789;47.678;9.158;2022-11-23T18:42:28;95780.47;;;7.00;96.30
13434;BME280;6789;47.678;9.158;2022-11-23T18:47:50;95800.28;;;7.01;96.22
13434;BME280;6789;47.678;9.158;2022-11-23T18:52:55;95801.88;;;7.02;99.55
13434;BME280;6789;47.678;9.158;2022-11-23T18:58:01;95816.16;;;7.10;100.00
13434;BME280;6789;47.678;9.158;2022-11-23T19:03:02;95825.25;;;7.19;100.00
13434;BME280;6789;47.678;9.158;2022-11-23T19:08:08;95830.59;;;7.13;100.00
13434;BME280;6789;47.678;9.158;2022-11-23T19:13:14;95841.13;;;7.18;100.00
13434;BME280;6789;47.678;9.158;2022-11-23T19:18:20;95854.25;;;7.11;100.00
13434;BME280;6789;47.678;9.158;2022-11-23T19:23:25;95863.44;;;7.14;100.00
13434;BME280;6789;47.678;9.158;2022-11-23T19:28:32;95884.75;;;7.11;100.00
13434;BME280;6789;47.678;9.158;2022-11-23T19:33:38;95898.91;;;7.04;100.00
13434;BME280;6789;47.678;9.158;2022-11-23T19:38:45;95914.38;;;6.99;100.00
13434;BME280;6789;47.678;9.158;2022-11-23T19:43:54;95927.56;;;7.04;100.00
13434;BME280;6789;47.678;9.158;2022-11-23T19:49:06;95955.13;;;7.11;100.00
13434;BME280;6789;47.678;9.158;2022-11-23T19:54:13;95940.41;;;7.16;100.00
13434;BME280;6789;47.678;9.158;2022-11-23T19:59:12;95954.59;;;7.20;100.00
13434;BME280;6789;47.678;9.158;2022-11-23T20:04:18;95971.06;;;7.32;100.00
13434;BME280;6789;47.678;9.158;2022-11-23T20:09:23;95982.97;;;7.40;100.00
13434;BME280;6789;47.678;9.158;2022-11-23T20:14:32;95975.81;;;7.35;100.00
13434;BME280;6789;47.678;9.158;2022-11-23T20:19:38;95981.94;;;7.29;100.00
13434;BME280;6789;47.678;9.158;2022-11-23T20:24:44;95999.97;;;7.31;100.00
13434;BME280;6789;47.678;9.158;2022-11-23T20:29:50;96009.59;;;7.30;100.00
13434;BME280;6789;47.678;9.158;2022-11-23T20:34:55;96018.41;;;7.18;100.00
13434;BME280;6789;47.678;9.158;2022-11-23T20:40:01;96031.31;;;7.13;100.00
13434;BME280;6789;47.678;9.158;2022-11-23T20:45:09;96040.78;;;7.07;100.00
13434;BME280;6789;47.678;9.158;2022-11-23T20:50:15;96049.72;;;7.00;100.00
13434;BME280;6789;47.678;9.158;2022-11-23T20:55:21;96057.06;;;7.03;100.00
13434;BME280;6789;47.678;9.158;2022-11-23T21:00:30;96062.94;;;6.99;100.00
13434;BME280;6789;47.678;9.158;2022-11-23T21:05:36;96087.13;;;7.06;100.00
13434;BME280;6789;47.678;9.158;2022-11-23T21:10:42;96092.56;;;7.04;100.00
13434;BME280;6789;47.678;9.158;2022-11-23T21:16:08;96096.31;;;7.08;100.00
13434;BME280;6789;47.678;9.158;2022-11-23T21:21:01;96105.97;;;7.07;100.00
13434;BME280;6789;47.678;9.158;2022-11-23T21:26:07;96107.56;;;7.08;100.00
13434;BME280;6789;47.678;9.158;2022-11-23T21:31:13;96110.44;;;7.18;100.00
13434;BME280;6789;47.678;9.158;2022-11-23T21:36:21;96134.84;;;7.24;100.00
13434;BME280;6789;47.678;9.158;2022-11-23T21:41:27;96149.03;;;7.28;100.00
13434;BME280;6789;47.678;9.158;2022-11-23T21:46:25;96137.00;;;7.27;100.00
13434;BME280;6789;47.678;9.158;2022-11-23T21:51:18;96135.28;;;7.21;100.00
13434;BME280;6789;47.678;9.158;2022-11-23T21:56:25;96148.53;;;7.19;100.00
13434;BME280;6789;47.678;9.158;2022-11-23T22:01:33;96155.41;;;7.14;100.00
13434;BME280;6789;47.678;9.158;2022-11-23T22:06:41;96167.50;;;7.08;100.00
13434;BME280;6789;47.678;9.158;2022-11-23T22:11:48;96173.75;;;7.25;100.00
13434;BME280;6789;47.678;9.158;2022-11-23T22:16:46;96176.63;;;7.17;100.00
13434;BME280;6789;47.678;9.158;2022-11-23T22:21:53;96180.31;;;7.10;100.00
13434;BME280;6789;47.678;9.158;2022-11-23T22:26:49;96176.94;;;7.09;100.00
13434;BME280;6789;47.678;9.158;2022-11-23T22:31:55;96190.28;;;6.95;100.00
13434;BME280;6789;47.678;9.158;2022-11-23T22:37:01;96204.16;;;6.89;100.00
13434;BME280;6789;47.678;9.158;2022-11-23T22:42:07;96212.22;;;6.88;100.00
13434;BME280;6789;47.678;9.158;2022-11-23T22:47:03;96226.25;;;6.87;100.00
13434;BME280;6789;47.678;9.158;2022-11-23T22:51:59;96234.22;;;6.92;100.00
13434;BME280;6789;47.678;9.158;2022-11-23T22:57:05;96236.44;;;7.12;100.00
13434;BME280;6789;47.678;9.158;2022-11-23T23:02:35;96242.47;;;7.13;100.00
13434;BME280;6789;47.678;9.158;2022-11-23T23:07:31;96236.53;;;7.24;100.00
13434;BME280;6789;47.678;9.158;2022-11-23T23:12:37;96245.50;;;7.28;100.00
13434;BME280;6789;47.678;9.158;2022-11-23T23:17:43;96245.09;;;7.31;100.00
13434;BME280;6789;47.678;9.158;2022-11-23T23:22:49;96245.88;;;7.31;100.00
13434;BME280;6789;47.678;9.158;2022-11-23T23:27:58;96235.81;;;7.35;100.00
13434;BME280;6789;47.678;9.158;2022-11-23T23:32:54;96246.84;;;7.37;100.00
13434;BME280;6789;47.678;9.158;2022-11-23T23:37:52;96247.41;;;7.39;100.00
13434;BME280;6789;47.678;9.158;2022-11-23T23:42:45;96254.06;;;7.35;100.00
13434;BME280;6789;47.678;9.158;2022-11-23T23:47:51;96257.47;;;7.35;100.00
13434;BME280;6789;47.678;9.158;2022-11-23T23:52:56;96266.25;;;7.41;100.00
13434;BME280;6789;47.678;9.158;2022-11-23T23:58:02;96257.34;;;7.48;100.00
